sensor_id;sensor_type;location;lat;lon;timestamp;P1;durP1;ratioP1;P2;durP2;ratioP2
48207;SDS011;33997;53.278;9.708;2022-07-25T00:00:46;8.95;;;5.32;;
48207;SDS011;33997;53.278;9.708;2022-07-25T00:03:12;8.02;;;5.28;;
48207;SDS011;33997;53.278;9.708;2022-07-25T00:05:37;9.05;;;5.85;;
48207;SDS011;33997;53.278;9.708;2022-07-25T00:08:03;6.15;;;5.28;;
48207;SDS011;33997;53.278;9.708;2022-07-25T00:10:29;7.82;;;5.72;;
48207;SDS011;33997;53.278;9.708;2022-07-25T00:12:54;7.53;;;5.60;;
48207;SDS011;33997;53.278;9.708;2022-07-25T00:15:20;7.00;;;5.28;;
48207;SDS011;33997;53.278;9.708;2022-07-25T00:17:45;7.72;;;5.07;;
48207;SDS011;33997;53.278;9.708;2022-07-25T00:20:11;7.78;;;5.32;;
48207;SDS011;33997;53.278;9.708;2022-07-25T00:22:36;11.10;;;5.18;;
48207;SDS011;33997;53.278;9.708;2022-07-25T00:25:02;10.65;;;4.90;;
48207;SDS011;33997;53.278;9.708;2022-07-25T00:27:28;6.57;;;4.93;;
48207;SDS011;33997;53.278;9.708;2022-07-25T00:29:53;7.05;;;4.95;;
48207;SDS011;33997;53.278;9.708;2022-07-25T00:32:19;5.90;;;4.50;;
48207;SDS011;33997;53.278;9.708;2022-07-25T00:34:44;8.57;;;5.30;;
48207;SDS011;33997;53.278;9.708;2022-07-25T00:37:10;7.35;;;5.35;;
48207;SDS011;33997;53.278;9.708;2022-07-25T00:39:35;7.80;;;4.47;;
48207;SDS011;33997;53.278;9.708;2022-07-25T00:42:01;7.63;;;5.25;;
48207;SDS011;33997;53.278;9.708;2022-07-25T00:44:28;6.63;;;4.90;;
48207;SDS011;33997;53.278;9.708;2022-07-25T00:46:55;7.60;;;4.85;;
48207;SDS011;33997;53.278;9.708;2022-07-25T00:49:21;5.97;;;4.28;;
48207;SDS011;33997;53.278;9.708;2022-07-25T00:51:48;6.82;;;4.43;;
48207;SDS011;33997;53.278;9.708;2022-07-25T00:54:16;9.32;;;4.15;;
48207;SDS011;33997;53.278;9.708;2022-07-25T00:56:42;7.88;;;4.53;;
48207;SDS011;33997;53.278;9.708;2022-07-25T00:59:09;6.70;;;4.38;;
48207;SDS011;33997;53.278;9.708;2022-07-25T01:01:35;6.45;;;4.40;;
48207;SDS011;33997;53.278;9.708;2022-07-25T01:04:02;8.38;;;4.28;;
48207;SDS011;33997;53.278;9.708;2022-07-25T01:06:28;5.93;;;3.97;;
48207;SDS011;33997;53.278;9.708;2022-07-25T01:08:54;7.13;;;4.43;;
48207;SDS011;33997;53.278;9.708;2022-07-25T01:11:20;7.60;;;4.78;;
48207;SDS011;33997;53.278;9.708;2022-07-25T01:13:46;6.50;;;3.95;;
48207;SDS011;33997;53.278;9.708;2022-07-25T01:16:12;7.30;;;4.22;;
48207;SDS011;33997;53.278;9.708;2022-07-25T01:18:37;6.18;;;4.20;;
48207;SDS011;33997;53.278;9.708;2022-07-25T01:21:03;5.65;;;3.72;;
48207;SDS011;33997;53.278;9.708;2022-07-25T01:23:29;5.47;;;3.53;;
48207;SDS011;33997;53.278;9.708;2022-07-25T01:25:54;6.88;;;4.30;;
48207;SDS011;33997;53.278;9.708;2022-07-25T01:28:20;5.10;;;3.72;;
48207;SDS011;33997;53.278;9.708;2022-07-25T01:30:45;5.82;;;4.03;;
48207;SDS011;33997;53.278;9.708;2022-07-25T01:33:18;8.77;;;4.22;;
48207;SDS011;33997;53.278;9.708;2022-07-25T01:35:45;9.00;;;3.75;;
48207;SDS011;33997;53.278;9.708;2022-07-25T01:38:11;5.15;;;3.40;;
48207;SDS011;33997;53.278;9.708;2022-07-25T01:40:37;9.00;;;3.28;;
48207;SDS011;33997;53.278;9.708;2022-07-25T01:43:03;6.32;;;3.70;;
48207;SDS011;33997;53.278;9.708;2022-07-25T01:45:29;5.80;;;3.50;;
48207;SDS011;33997;53.278;9.708;2022-07-25T01:47:55;8.13;;;4.28;;
48207;SDS011;33997;53.278;9.708;2022-07-25T01:50:20;7.50;;;3.35;;
48207;SDS011;33997;53.278;9.708;2022-07-25T01:52:46;9.45;;;3.70;;
48207;SDS011;33997;53.278;9.708;2022-07-25T01:55:11;6.70;;;3.67;;
48207;SDS011;33997;53.278;9.708;2022-07-25T01:57:38;4.80;;;3.30;;
48207;SDS011;33997;53.278;9.708;2022-07-25T02:00:04;4.82;;;3.70;;
48207;SDS011;33997;53.278;9.708;2022-07-25T02:02:32;6.20;;;3.58;;
48207;SDS011;33997;53.278;9.708;2022-07-25T02:04:57;6.53;;;3.90;;
48207;SDS011;33997;53.278;9.708;2022-07-25T02:07:23;6.50;;;3.60;;
48207;SDS011;33997;53.278;9.708;2022-07-25T02:09:48;5.43;;;3.13;;
48207;SDS011;33997;53.278;9.708;2022-07-25T02:12:14;6.20;;;3.33;;
48207;SDS011;33997;53.278;9.708;2022-07-25T02:14:39;5.47;;;3.70;;
48207;SDS011;33997;53.278;9.708;2022-07-25T02:17:05;5.53;;;3.58;;
48207;SDS011;33997;53.278;9.708;2022-07-25T02:19:31;5.47;;;3.50;;
48207;SDS011;33997;53.278;9.708;2022-07-25T02:21:56;8.63;;;3.55;;
48207;SDS011;33997;53.278;9.708;2022-07-25T02:24:22;7.07;;;3.53;;
48207;SDS011;33997;53.278;9.708;2022-07-25T02:26:47;6.28;;;3.55;;
48207;SDS011;33997;53.278;9.708;2022-07-25T02:29:13;5.93;;;3.30;;
48207;SDS011;33997;53.278;9.708;2022-07-25T02:31:38;6.90;;;3.10;;
48207;SDS011;33997;53.278;9.708;2022-07-25T02:34:03;8.52;;;3.15;;
48207;SDS011;33997;53.278;9.708;2022-07-25T02:36:29;6.05;;;3.17;;
48207;SDS011;33997;53.278;9.708;2022-07-25T02:38:55;5.03;;;3.25;;
48207;SDS011;33997;53.278;9.708;2022-07-25T02:41:20;4.53;;;3.25;;
48207;SDS011;33997;53.278;9.708;2022-07-25T02:43:46;7.20;;;3.60;;
48207;SDS011;33997;53.278;9.708;2022-07-25T02:46:11;7.15;;;3.13;;
48207;SDS011;33997;53.278;9.708;2022-07-25T02:48:37;6.43;;;3.17;;
48207;SDS011;33997;53.278;9.708;2022-07-25T02:51:02;6.97;;;3.65;;
48207;SDS011;33997;53.278;9.708;2022-07-25T02:53:28;5.68;;;3.10;;
48207;SDS011;33997;53.278;9.708;2022-07-25T02:55:53;4.30;;;3.10;;
48207;SDS011;33997;53.278;9.708;2022-07-25T02:58:19;6.05;;;3.40;;
48207;SDS011;33997;53.278;9.708;2022-07-25T03:00:44;5.25;;;3.10;;
48207;SDS011;33997;53.278;9.708;2022-07-25T03:03:10;5.38;;;3.20;;
48207;SDS011;33997;53.278;9.708;2022-07-25T03:05:36;9.10;;;3.17;;
48207;SDS011;33997;53.278;9.708;2022-07-25T03:08:01;6.35;;;3.50;;
48207;SDS011;33997;53.278;9.708;2022-07-25T03:10:27;5.75;;;2.97;;
48207;SDS011;33997;53.278;9.708;2022-07-25T03:12:52;6.82;;;3.35;;
48207;SDS011;33997;53.278;9.708;2022-07-25T03:15:18;5.35;;;3.25;;
48207;SDS011;33997;53.278;9.708;2022-07-25T03:17:43;6.82;;;3.25;;
48207;SDS011;33997;53.278;9.708;2022-07-25T03:20:09;4.45;;;3.13;;
48207;SDS011;33997;53.278;9.708;2022-07-25T03:22:35;7.30;;;3.05;;
48207;SDS011;33997;53.278;9.708;2022-07-25T03:25:01;7.30;;;3.28;;
48207;SDS011;33997;53.278;9.708;2022-07-25T03:27:26;4.68;;;2.72;;
48207;SDS011;33997;53.278;9.708;2022-07-25T03:29:52;5.70;;;3.28;;
48207;SDS011;33997;53.278;9.708;2022-07-25T03:32:18;5.45;;;3.00;;
48207;SDS011;33997;53.278;9.708;2022-07-25T03:34:44;6.65;;;3.45;;
48207;SDS011;33997;53.278;9.708;2022-07-25T03:37:09;5.72;;;3.15;;
48207;SDS011;33997;53.278;9.708;2022-07-25T03:39:35;5.95;;;3.28;;
48207;SDS011;33997;53.278;9.708;2022-07-25T03:42:00;4.10;;;2.72;;
48207;SDS011;33997;53.278;9.708;2022-07-25T03:44:26;7.78;;;3.38;;
48207;SDS011;33997;53.278;9.708;2022-07-25T03:46:51;6.10;;;3.50;;
48207;SDS011;33997;53.278;9.708;2022-07-25T03:49:17;8.10;;;2.88;;
48207;SDS011;33997;53.278;9.708;2022-07-25T03:51:43;8.43;;;3.22;;
48207;SDS011;33997;53.278;9.708;2022-07-25T03:54:09;5.57;;;3.13;;
48207;SDS011;33997;53.278;9.708;2022-07-25T03:56:39;5.43;;;2.80;;
48207;SDS011;33997;53.278;9.708;2022-07-25T03:59:06;4.45;;;2.90;;
48207;SDS011;33997;53.278;9.708;2022-07-25T04:01:33;4.13;;;3.00;;
48207;SDS011;33997;53.278;9.708;2022-07-25T04:03:59;6.72;;;3.30;;
48207;SDS011;33997;53.278;9.708;2022-07-25T04:06:25;4.00;;;2.88;;
48207;SDS011;33997;53.278;9.708;2022-07-25T04:08:50;5.45;;;3.28;;
48207;SDS011;33997;53.278;9.708;2022-07-25T04:11:16;5.90;;;3.10;;
48207;SDS011;33997;53.278;9.708;2022-07-25T04:13:42;5.20;;;3.20;;
48207;SDS011;33997;53.278;9.708;2022-07-25T04:16:08;4.93;;;3.20;;
48207;SDS011;33997;53.278;9.708;2022-07-25T04:18:33;5.93;;;3.08;;
48207;SDS011;33997;53.278;9.708;2022-07-25T04:20:59;5.28;;;3.47;;
48207;SDS011;33997;53.278;9.708;2022-07-25T04:23:25;4.75;;;3.00;;
48207;SDS011;33997;53.278;9.708;2022-07-25T04:25:52;4.43;;;2.50;;
48207;SDS011;33997;53.278;9.708;2022-07-25T04:28:18;3.75;;;2.83;;
48207;SDS011;33997;53.278;9.708;2022-07-25T04:30:43;5.88;;;3.15;;
48207;SDS011;33997;53.278;9.708;2022-07-25T04:33:09;6.85;;;3.00;;
48207;SDS011;33997;53.278;9.708;2022-07-25T04:35:35;4.18;;;2.70;;
48207;SDS011;33997;53.278;9.708;2022-07-25T04:38:01;5.75;;;2.95;;
48207;SDS011;33997;53.278;9.708;2022-07-25T04:40:26;4.88;;;2.88;;
48207;SDS011;33997;53.278;9.708;2022-07-25T04:42:52;5.05;;;2.67;;
48207;SDS011;33997;53.278;9.708;2022-07-25T04:45:17;4.82;;;2.75;;
48207;SDS011;33997;53.278;9.708;2022-07-25T04:47:43;4.20;;;2.80;;
48207;SDS011;33997;53.278;9.708;2022-07-25T04:50:09;5.97;;;2.72;;
48207;SDS011;33997;53.278;9.708;2022-07-25T04:52:34;5.10;;;3.17;;
48207;SDS011;33997;53.278;9.708;2022-07-25T04:55:00;4.88;;;2.92;;
48207;SDS011;33997;53.278;9.708;2022-07-25T04:57:25;5.03;;;2.65;;
48207;SDS011;33997;53.278;9.708;2022-07-25T04:59:51;7.13;;;2.97;;
48207;SDS011;33997;53.278;9.708;2022-07-25T05:02:16;5.93;;;2.72;;
48207;SDS011;33997;53.278;9.708;2022-07-25T05:04:41;5.32;;;2.97;;
48207;SDS011;33997;53.278;9.708;2022-07-25T05:07:07;6.45;;;2.67;;
48207;SDS011;33997;53.278;9.708;2022-07-25T05:09:32;6.30;;;2.85;;
48207;SDS011;33997;53.278;9.708;2022-07-25T05:11:58;5.80;;;3.10;;
48207;SDS011;33997;53.278;9.708;2022-07-25T05:14:24;7.18;;;2.72;;
48207;SDS011;33997;53.278;9.708;2022-07-25T05:16:49;6.78;;;2.80;;
48207;SDS011;33997;53.278;9.708;2022-07-25T05:19:15;5.55;;;2.85;;
48207;SDS011;33997;53.278;9.708;2022-07-25T05:21:40;7.18;;;2.83;;
48207;SDS011;33997;53.278;9.708;2022-07-25T05:24:06;4.30;;;2.63;;
48207;SDS011;33997;53.278;9.708;2022-07-25T05:26:31;4.25;;;3.05;;
48207;SDS011;33997;53.278;9.708;2022-07-25T05:28:57;3.75;;;2.60;;
48207;SDS011;33997;53.278;9.708;2022-07-25T05:31:22;5.63;;;2.97;;
48207;SDS011;33997;53.278;9.708;2022-07-25T05:33:48;4.25;;;2.70;;
48207;SDS011;33997;53.278;9.708;2022-07-25T05:36:13;4.28;;;2.55;;
48207;SDS011;33997;53.278;9.708;2022-07-25T05:38:39;5.45;;;2.60;;
48207;SDS011;33997;53.278;9.708;2022-07-25T05:41:04;5.78;;;2.75;;
48207;SDS011;33997;53.278;9.708;2022-07-25T05:43:30;4.88;;;2.58;;
48207;SDS011;33997;53.278;9.708;2022-07-25T05:46:00;4.50;;;2.50;;
48207;SDS011;33997;53.278;9.708;2022-07-25T05:48:26;5.35;;;2.55;;
48207;SDS011;33997;53.278;9.708;2022-07-25T05:50:51;4.20;;;2.63;;
48207;SDS011;33997;53.278;9.708;2022-07-25T05:53:17;4.82;;;2.80;;
48207;SDS011;33997;53.278;9.708;2022-07-25T05:55:42;5.18;;;3.13;;
48207;SDS011;33997;53.278;9.708;2022-07-25T05:58:08;5.38;;;2.70;;
48207;SDS011;33997;53.278;9.708;2022-07-25T06:00:33;5.63;;;2.47;;
48207;SDS011;33997;53.278;9.708;2022-07-25T06:02:59;4.95;;;2.35;;
48207;SDS011;33997;53.278;9.708;2022-07-25T06:05:25;6.35;;;2.85;;
48207;SDS011;33997;53.278;9.708;2022-07-25T06:07:51;5.03;;;2.83;;
48207;SDS011;33997;53.278;9.708;2022-07-25T06:10:16;5.80;;;2.70;;
48207;SDS011;33997;53.278;9.708;2022-07-25T06:12:42;5.38;;;3.00;;
48207;SDS011;33997;53.278;9.708;2022-07-25T06:15:07;7.50;;;2.80;;
48207;SDS011;33997;53.278;9.708;2022-07-25T06:17:33;6.45;;;2.83;;
48207;SDS011;33997;53.278;9.708;2022-07-25T06:19:59;3.90;;;2.50;;
48207;SDS011;33997;53.278;9.708;2022-07-25T06:22:25;4.75;;;2.92;;
48207;SDS011;33997;53.278;9.708;2022-07-25T06:24:50;3.63;;;2.47;;
48207;SDS011;33997;53.278;9.708;2022-07-25T06:27:16;5.80;;;2.70;;
48207;SDS011;33997;53.278;9.708;2022-07-25T06:29:41;4.93;;;2.83;;
48207;SDS011;33997;53.278;9.708;2022-07-25T06:32:07;3.95;;;2.50;;
48207;SDS011;33997;53.278;9.708;2022-07-25T06:34:32;4.40;;;2.80;;
48207;SDS011;33997;53.278;9.708;2022-07-25T06:36:58;5.32;;;2.70;;
48207;SDS011;33997;53.278;9.708;2022-07-25T06:39:24;7.30;;;2.60;;
48207;SDS011;33997;53.278;9.708;2022-07-25T06:41:50;5.13;;;2.88;;
48207;SDS011;33997;53.278;9.708;2022-07-25T06:44:16;4.35;;;2.45;;
48207;SDS011;33997;53.278;9.708;2022-07-25T06:46:41;4.75;;;2.90;;
48207;SDS011;33997;53.278;9.708;2022-07-25T06:49:06;6.28;;;2.60;;
48207;SDS011;33997;53.278;9.708;2022-07-25T06:51:32;5.32;;;2.92;;
48207;SDS011;33997;53.278;9.708;2022-07-25T06:53:57;6.72;;;2.88;;
48207;SDS011;33997;53.278;9.708;2022-07-25T06:56:24;6.85;;;2.80;;
48207;SDS011;33997;53.278;9.708;2022-07-25T06:58:49;5.32;;;2.80;;
48207;SDS011;33997;53.278;9.708;2022-07-25T07:01:17;6.65;;;2.65;;
48207;SDS011;33997;53.278;9.708;2022-07-25T07:03:42;5.30;;;2.83;;
48207;SDS011;33997;53.278;9.708;2022-07-25T07:06:08;6.50;;;3.03;;
48207;SDS011;33997;53.278;9.708;2022-07-25T07:08:33;5.68;;;3.28;;
48207;SDS011;33997;53.278;9.708;2022-07-25T07:10:59;3.97;;;2.55;;
48207;SDS011;33997;53.278;9.708;2022-07-25T07:13:25;4.75;;;2.80;;
48207;SDS011;33997;53.278;9.708;2022-07-25T07:15:51;4.78;;;2.90;;
48207;SDS011;33997;53.278;9.708;2022-07-25T07:18:17;5.68;;;2.92;;
48207;SDS011;33997;53.278;9.708;2022-07-25T07:20:44;11.07;;;3.38;;
48207;SDS011;33997;53.278;9.708;2022-07-25T07:23:10;6.60;;;3.35;;
48207;SDS011;33997;53.278;9.708;2022-07-25T07:25:36;5.88;;;3.10;;
48207;SDS011;33997;53.278;9.708;2022-07-25T07:28:01;4.20;;;3.00;;
48207;SDS011;33997;53.278;9.708;2022-07-25T07:30:27;5.03;;;2.97;;
48207;SDS011;33997;53.278;9.708;2022-07-25T07:32:53;4.72;;;2.72;;
48207;SDS011;33997;53.278;9.708;2022-07-25T07:35:19;5.60;;;3.00;;
48207;SDS011;33997;53.278;9.708;2022-07-25T07:37:45;6.82;;;3.10;;
48207;SDS011;33997;53.278;9.708;2022-07-25T07:40:11;4.68;;;3.08;;
48207;SDS011;33997;53.278;9.708;2022-07-25T07:42:38;6.07;;;3.17;;
48207;SDS011;33997;53.278;9.708;2022-07-25T07:45:13;7.00;;;3.53;;
48207;SDS011;33997;53.278;9.708;2022-07-25T07:47:38;6.73;;;3.53;;
48207;SDS011;33997;53.278;9.708;2022-07-25T07:50:04;6.15;;;3.65;;
48207;SDS011;33997;53.278;9.708;2022-07-25T07:52:30;7.25;;;3.90;;
48207;SDS011;33997;53.278;9.708;2022-07-25T07:54:56;5.65;;;3.40;;
48207;SDS011;33997;53.278;9.708;2022-07-25T07:57:40;5.53;;;3.25;;
48207;SDS011;33997;53.278;9.708;2022-07-25T08:00:06;5.22;;;3.33;;
48207;SDS011;33997;53.278;9.708;2022-07-25T08:02:32;4.10;;;2.95;;
48207;SDS011;33997;53.278;9.708;2022-07-25T08:05:10;5.03;;;3.30;;
48207;SDS011;33997;53.278;9.708;2022-07-25T08:07:35;6.88;;;3.40;;
48207;SDS011;33997;53.278;9.708;2022-07-25T08:10:01;6.07;;;3.13;;
48207;SDS011;33997;53.278;9.708;2022-07-25T08:12:26;4.93;;;3.40;;
48207;SDS011;33997;53.278;9.708;2022-07-25T08:14:52;5.90;;;3.20;;
48207;SDS011;33997;53.278;9.708;2022-07-25T08:17:17;5.28;;;3.13;;
48207;SDS011;33997;53.278;9.708;2022-07-25T08:19:43;7.18;;;3.45;;
48207;SDS011;33997;53.278;9.708;2022-07-25T08:22:08;8.02;;;3.35;;
48207;SDS011;33997;53.278;9.708;2022-07-25T08:24:34;6.00;;;3.20;;
48207;SDS011;33997;53.278;9.708;2022-07-25T08:26:59;6.88;;;3.58;;
48207;SDS011;33997;53.278;9.708;2022-07-25T08:29:25;5.57;;;3.63;;
48207;SDS011;33997;53.278;9.708;2022-07-25T08:31:51;4.85;;;3.30;;
48207;SDS011;33997;53.278;9.708;2022-07-25T08:34:16;6.05;;;3.95;;
48207;SDS011;33997;53.278;9.708;2022-07-25T08:36:43;5.35;;;3.65;;
48207;SDS011;33997;53.278;9.708;2022-07-25T08:39:09;5.93;;;3.72;;
48207;SDS011;33997;53.278;9.708;2022-07-25T08:41:34;4.32;;;3.30;;
48207;SDS011;33997;53.278;9.708;2022-07-25T08:44:04;6.25;;;3.55;;
48207;SDS011;33997;53.278;9.708;2022-07-25T08:46:30;10.00;;;4.25;;
48207;SDS011;33997;53.278;9.708;2022-07-25T08:48:55;6.85;;;3.92;;
48207;SDS011;33997;53.278;9.708;2022-07-25T08:51:21;4.93;;;3.30;;
48207;SDS011;33997;53.278;9.708;2022-07-25T08:53:48;4.82;;;3.38;;
48207;SDS011;33997;53.278;9.708;2022-07-25T08:56:14;5.10;;;3.55;;
48207;SDS011;33997;53.278;9.708;2022-07-25T08:58:40;7.60;;;3.30;;
48207;SDS011;33997;53.278;9.708;2022-07-25T09:01:06;7.18;;;4.10;;
48207;SDS011;33997;53.278;9.708;2022-07-25T09:03:32;5.25;;;3.25;;
48207;SDS011;33997;53.278;9.708;2022-07-25T09:05:57;5.05;;;3.65;;
48207;SDS011;33997;53.278;9.708;2022-07-25T09:08:23;4.57;;;3.38;;
48207;SDS011;33997;53.278;9.708;2022-07-25T09:10:49;5.75;;;3.10;;
48207;SDS011;33997;53.278;9.708;2022-07-25T09:13:16;5.18;;;3.80;;
48207;SDS011;33997;53.278;9.708;2022-07-25T09:15:44;6.82;;;3.72;;
48207;SDS011;33997;53.278;9.708;2022-07-25T09:18:18;7.90;;;4.18;;
48207;SDS011;33997;53.278;9.708;2022-07-25T09:20:48;8.63;;;4.00;;
48207;SDS011;33997;53.278;9.708;2022-07-25T09:23:26;8.10;;;3.40;;
48207;SDS011;33997;53.278;9.708;2022-07-25T09:26:12;5.85;;;3.65;;
48207;SDS011;33997;53.278;9.708;2022-07-25T09:28:48;10.10;;;3.55;;
48207;SDS011;33997;53.278;9.708;2022-07-25T09:31:16;6.10;;;3.50;;
48207;SDS011;33997;53.278;9.708;2022-07-25T09:33:43;6.22;;;3.90;;
48207;SDS011;33997;53.278;9.708;2022-07-25T09:36:11;7.07;;;3.95;;
48207;SDS011;33997;53.278;9.708;2022-07-25T09:38:37;4.97;;;3.38;;
48207;SDS011;33997;53.278;9.708;2022-07-25T09:41:02;8.15;;;3.30;;
48207;SDS011;33997;53.278;9.708;2022-07-25T09:43:38;4.75;;;3.33;;
48207;SDS011;33997;53.278;9.708;2022-07-25T09:46:04;5.85;;;3.58;;
48207;SDS011;33997;53.278;9.708;2022-07-25T09:48:31;6.65;;;3.83;;
48207;SDS011;33997;53.278;9.708;2022-07-25T09:50:57;6.72;;;3.03;;
48207;SDS011;33997;53.278;9.708;2022-07-25T09:53:23;8.25;;;3.97;;
48207;SDS011;33997;53.278;9.708;2022-07-25T09:55:49;5.22;;;3.30;;
48207;SDS011;33997;53.278;9.708;2022-07-25T09:58:17;5.22;;;3.42;;
48207;SDS011;33997;53.278;9.708;2022-07-25T10:00:43;4.25;;;3.08;;
48207;SDS011;33997;53.278;9.708;2022-07-25T10:06:23;5.13;;;3.25;;
48207;SDS011;33997;53.278;9.708;2022-07-25T10:08:58;5.75;;;3.58;;
48207;SDS011;33997;53.278;9.708;2022-07-25T10:11:24;5.43;;;3.42;;
48207;SDS011;33997;53.278;9.708;2022-07-25T10:13:51;7.43;;;3.67;;
48207;SDS011;33997;53.278;9.708;2022-07-25T10:16:19;5.47;;;3.15;;
48207;SDS011;33997;53.278;9.708;2022-07-25T10:18:47;5.75;;;3.67;;
48207;SDS011;33997;53.278;9.708;2022-07-25T10:21:23;6.35;;;3.35;;
48207;SDS011;33997;53.278;9.708;2022-07-25T10:24:00;9.75;;;3.30;;
48207;SDS011;33997;53.278;9.708;2022-07-25T10:28:56;7.53;;;3.30;;
48207;SDS011;33997;53.278;9.708;2022-07-25T10:31:32;7.25;;;3.33;;
48207;SDS011;33997;53.278;9.708;2022-07-25T10:34:04;5.13;;;3.30;;
48207;SDS011;33997;53.278;9.708;2022-07-25T10:36:44;6.72;;;3.55;;
48207;SDS011;33997;53.278;9.708;2022-07-25T10:39:16;5.15;;;3.67;;
48207;SDS011;33997;53.278;9.708;2022-07-25T10:41:48;4.45;;;3.58;;
48207;SDS011;33997;53.278;9.708;2022-07-25T10:44:16;4.50;;;3.38;;
48207;SDS011;33997;53.278;9.708;2022-07-25T10:46:42;8.23;;;3.22;;
48207;SDS011;33997;53.278;9.708;2022-07-25T10:49:15;4.63;;;3.38;;
48207;SDS011;33997;53.278;9.708;2022-07-25T10:51:50;5.13;;;3.55;;
48207;SDS011;33997;53.278;9.708;2022-07-25T10:54:21;5.72;;;3.35;;
48207;SDS011;33997;53.278;9.708;2022-07-25T10:56:54;7.05;;;3.65;;
48207;SDS011;33997;53.278;9.708;2022-07-25T10:59:25;6.63;;;3.83;;
48207;SDS011;33997;53.278;9.708;2022-07-25T11:01:53;5.22;;;3.55;;
48207;SDS011;33997;53.278;9.708;2022-07-25T11:04:19;4.57;;;3.20;;
48207;SDS011;33997;53.278;9.708;2022-07-25T11:06:44;5.85;;;3.50;;
48207;SDS011;33997;53.278;9.708;2022-07-25T11:09:14;5.28;;;3.55;;
48207;SDS011;33997;53.278;9.708;2022-07-25T11:11:45;5.20;;;3.22;;
48207;SDS011;33997;53.278;9.708;2022-07-25T11:14:16;6.10;;;3.28;;
48207;SDS011;33997;53.278;9.708;2022-07-25T11:16:42;4.90;;;2.85;;
48207;SDS011;33997;53.278;9.708;2022-07-25T11:21:49;4.93;;;3.20;;
48207;SDS011;33997;53.278;9.708;2022-07-25T11:24:16;5.32;;;3.10;;
48207;SDS011;33997;53.278;9.708;2022-07-25T11:26:46;6.65;;;3.65;;
48207;SDS011;33997;53.278;9.708;2022-07-25T11:29:17;7.65;;;3.40;;
48207;SDS011;33997;53.278;9.708;2022-07-25T11:31:54;8.80;;;3.30;;
48207;SDS011;33997;53.278;9.708;2022-07-25T11:34:26;5.05;;;3.33;;
48207;SDS011;33997;53.278;9.708;2022-07-25T11:36:54;7.55;;;3.45;;
48207;SDS011;33997;53.278;9.708;2022-07-25T11:39:31;5.25;;;3.13;;
48207;SDS011;33997;53.278;9.708;2022-07-25T11:44:34;6.60;;;3.17;;
48207;SDS011;33997;53.278;9.708;2022-07-25T11:47:04;5.10;;;3.15;;
48207;SDS011;33997;53.278;9.708;2022-07-25T11:49:44;7.07;;;3.40;;
48207;SDS011;33997;53.278;9.708;2022-07-25T11:52:18;3.65;;;3.00;;
48207;SDS011;33997;53.278;9.708;2022-07-25T11:55:11;5.65;;;3.70;;
48207;SDS011;33997;53.278;9.708;2022-07-25T11:57:45;5.63;;;3.30;;
48207;SDS011;33997;53.278;9.708;2022-07-25T12:00:18;7.43;;;3.30;;
48207;SDS011;33997;53.278;9.708;2022-07-25T12:02:45;4.15;;;3.17;;
48207;SDS011;33997;53.278;9.708;2022-07-25T12:05:12;5.47;;;3.20;;
48207;SDS011;33997;53.278;9.708;2022-07-25T12:07:44;5.90;;;3.25;;
48207;SDS011;33997;53.278;9.708;2022-07-25T12:10:16;5.45;;;3.40;;
48207;SDS011;33997;53.278;9.708;2022-07-25T12:12:57;5.15;;;2.78;;
48207;SDS011;33997;53.278;9.708;2022-07-25T12:15:46;3.78;;;2.80;;
48207;SDS011;33997;53.278;9.708;2022-07-25T12:18:10;6.15;;;3.65;;
48207;SDS011;33997;53.278;9.708;2022-07-25T12:20:40;5.05;;;3.10;;
48207;SDS011;33997;53.278;9.708;2022-07-25T12:23:07;6.28;;;2.90;;
48207;SDS011;33997;53.278;9.708;2022-07-25T12:25:35;5.18;;;3.30;;
48207;SDS011;33997;53.278;9.708;2022-07-25T12:28:02;5.57;;;3.33;;
48207;SDS011;33997;53.278;9.708;2022-07-25T12:30:29;5.28;;;3.22;;
48207;SDS011;33997;53.278;9.708;2022-07-25T12:32:55;4.82;;;3.25;;
48207;SDS011;33997;53.278;9.708;2022-07-25T12:35:22;6.25;;;2.90;;
48207;SDS011;33997;53.278;9.708;2022-07-25T12:37:48;6.43;;;3.53;;
48207;SDS011;33997;53.278;9.708;2022-07-25T12:40:14;4.32;;;3.17;;
48207;SDS011;33997;53.278;9.708;2022-07-25T12:42:40;6.00;;;3.60;;
48207;SDS011;33997;53.278;9.708;2022-07-25T12:45:07;5.82;;;3.33;;
48207;SDS011;33997;53.278;9.708;2022-07-25T12:47:33;7.88;;;3.72;;
48207;SDS011;33997;53.278;9.708;2022-07-25T12:49:59;6.03;;;3.70;;
48207;SDS011;33997;53.278;9.708;2022-07-25T12:52:25;5.88;;;3.40;;
48207;SDS011;33997;53.278;9.708;2022-07-25T12:54:50;5.55;;;3.83;;
48207;SDS011;33997;53.278;9.708;2022-07-25T12:57:16;5.57;;;3.50;;
48207;SDS011;33997;53.278;9.708;2022-07-25T12:59:42;6.47;;;3.67;;
48207;SDS011;33997;53.278;9.708;2022-07-25T13:02:07;4.32;;;2.92;;
48207;SDS011;33997;53.278;9.708;2022-07-25T13:04:33;5.85;;;3.63;;
48207;SDS011;33997;53.278;9.708;2022-07-25T13:06:59;6.45;;;3.58;;
48207;SDS011;33997;53.278;9.708;2022-07-25T13:09:24;6.38;;;3.53;;
48207;SDS011;33997;53.278;9.708;2022-07-25T13:11:51;6.55;;;3.80;;
48207;SDS011;33997;53.278;9.708;2022-07-25T13:14:17;5.78;;;3.83;;
48207;SDS011;33997;53.278;9.708;2022-07-25T13:16:43;6.63;;;3.53;;
48207;SDS011;33997;53.278;9.708;2022-07-25T13:19:09;7.40;;;3.67;;
48207;SDS011;33997;53.278;9.708;2022-07-25T13:21:36;4.72;;;3.28;;
48207;SDS011;33997;53.278;9.708;2022-07-25T13:24:01;4.25;;;3.33;;
48207;SDS011;33997;53.278;9.708;2022-07-25T13:26:27;4.57;;;3.47;;
48207;SDS011;33997;53.278;9.708;2022-07-25T13:28:53;4.70;;;3.15;;
48207;SDS011;33997;53.278;9.708;2022-07-25T13:31:19;6.53;;;3.67;;
48207;SDS011;33997;53.278;9.708;2022-07-25T13:33:46;5.90;;;3.65;;
48207;SDS011;33997;53.278;9.708;2022-07-25T13:36:12;6.00;;;3.55;;
48207;SDS011;33997;53.278;9.708;2022-07-25T13:38:38;4.78;;;3.40;;
48207;SDS011;33997;53.278;9.708;2022-07-25T13:41:05;5.60;;;3.83;;
48207;SDS011;33997;53.278;9.708;2022-07-25T13:43:32;6.72;;;3.88;;
48207;SDS011;33997;53.278;9.708;2022-07-25T13:45:58;4.72;;;3.50;;
48207;SDS011;33997;53.278;9.708;2022-07-25T13:48:24;8.75;;;3.83;;
48207;SDS011;33997;53.278;9.708;2022-07-25T13:50:49;6.95;;;3.30;;
48207;SDS011;33997;53.278;9.708;2022-07-25T13:53:15;6.55;;;3.60;;
48207;SDS011;33997;53.278;9.708;2022-07-25T13:55:41;5.60;;;3.30;;
48207;SDS011;33997;53.278;9.708;2022-07-25T13:58:06;6.10;;;3.85;;
48207;SDS011;33997;53.278;9.708;2022-07-25T14:00:32;5.15;;;3.65;;
48207;SDS011;33997;53.278;9.708;2022-07-25T14:02:58;6.32;;;3.92;;
48207;SDS011;33997;53.278;9.708;2022-07-25T14:05:23;8.40;;;3.85;;
48207;SDS011;33997;53.278;9.708;2022-07-25T14:07:49;5.57;;;3.70;;
48207;SDS011;33997;53.278;9.708;2022-07-25T14:10:14;5.45;;;3.60;;
48207;SDS011;33997;53.278;9.708;2022-07-25T14:12:40;5.47;;;3.63;;
48207;SDS011;33997;53.278;9.708;2022-07-25T14:15:05;5.72;;;3.83;;
48207;SDS011;33997;53.278;9.708;2022-07-25T14:17:32;5.97;;;3.97;;
48207;SDS011;33997;53.278;9.708;2022-07-25T14:19:57;6.47;;;3.30;;
48207;SDS011;33997;53.278;9.708;2022-07-25T14:22:23;6.30;;;3.60;;
48207;SDS011;33997;53.278;9.708;2022-07-25T14:24:49;5.90;;;3.67;;
48207;SDS011;33997;53.278;9.708;2022-07-25T14:27:15;5.60;;;3.67;;
48207;SDS011;33997;53.278;9.708;2022-07-25T14:29:41;6.25;;;4.43;;
48207;SDS011;33997;53.278;9.708;2022-07-25T14:32:06;6.47;;;4.22;;
48207;SDS011;33997;53.278;9.708;2022-07-25T14:34:35;7.57;;;4.20;;
48207;SDS011;33997;53.278;9.708;2022-07-25T14:37:04;9.20;;;4.50;;
48207;SDS011;33997;53.278;9.708;2022-07-25T14:39:30;7.43;;;4.75;;
48207;SDS011;33997;53.278;9.708;2022-07-25T14:41:56;8.25;;;5.70;;
48207;SDS011;33997;53.278;9.708;2022-07-25T14:44:23;10.15;;;6.97;;
48207;SDS011;33997;53.278;9.708;2022-07-25T14:46:50;14.35;;;8.27;;
48207;SDS011;33997;53.278;9.708;2022-07-25T14:49:16;12.20;;;8.02;;
48207;SDS011;33997;53.278;9.708;2022-07-25T14:51:42;11.48;;;7.35;;
48207;SDS011;33997;53.278;9.708;2022-07-25T14:54:09;11.48;;;8.35;;
48207;SDS011;33997;53.278;9.708;2022-07-25T14:56:35;11.45;;;8.30;;